sensor_id;sensor_type;location;lat;lon;timestamp;pressure;altitude;pressure_sealevel;temperature;humidity
84677;BME280;74901;55.024;73.254;2024-03-08T00:01:26;100963.94;;;-15.64;59.34
84677;BME280;74901;55.024;73.254;2024-03-08T00:03:55;100955.41;;;-15.60;59.11
84677;BME280;74901;55.024;73.254;2024-03-08T00:06:24;100961.00;;;-15.49;59.12
84677;BME280;74901;55.024;73.254;2024-03-08T00:08:53;100956.94;;;-15.45;59.34
84677;BME280;74901;55.024;73.254;2024-03-08T00:11:23;100965.81;;;-15.40;59.14
84677;BME280;74901;55.024;73.254;2024-03-08T00:13:52;100960.91;;;-15.36;58.73
84677;BME280;74901;55.024;73.254;2024-03-08T00:16:21;100958.06;;;-15.35;59.46
84677;BME280;74901;55.024;73.254;2024-03-08T00:18:52;100961.69;;;-15.29;59.52
84677;BME280;74901;55.024;73.254;2024-03-08T00:21:21;100948.94;;;-15.32;59.19
84677;BME280;74901;55.024;73.254;2024-03-08T00:23:49;100951.06;;;-15.16;59.51
84677;BME280;74901;55.024;73.254;2024-03-08T00:26:18;100952.84;;;-15.10;59.03
84677;BME280;74901;55.024;73.254;2024-03-08T00:28:48;100950.22;;;-15.10;59.89
84677;BME280;74901;55.024;73.254;2024-03-08T00:31:17;100958.13;;;-15.10;59.73
84677;BME280;74901;55.024;73.254;2024-03-08T00:33:45;100946.72;;;-15.04;59.92
84677;BME280;74901;55.024;73.254;2024-03-08T00:36:16;100952.59;;;-15.02;60.20
84677;BME280;74901;55.024;73.254;2024-03-08T00:38:44;100956.47;;;-15.04;60.28
84677;BME280;74901;55.024;73.254;2024-03-08T00:41:13;100967.00;;;-15.04;59.76
84677;BME280;74901;55.024;73.254;2024-03-08T00:43:42;100962.38;;;-15.09;60.33
84677;BME280;74901;55.024;73.254;2024-03-08T00:46:10;100949.81;;;-15.07;60.56
84677;BME280;74901;55.024;73.254;2024-03-08T00:48:39;100954.06;;;-15.06;60.84
84677;BME280;74901;55.024;73.254;2024-03-08T00:51:10;100947.16;;;-15.07;60.27
84677;BME280;74901;55.024;73.254;2024-03-08T00:53:40;100938.25;;;-15.06;60.95
84677;BME280;74901;55.024;73.254;2024-03-08T00:56:09;100939.47;;;-15.08;60.82
84677;BME280;74901;55.024;73.254;2024-03-08T00:58:38;100944.78;;;-15.15;61.02
84677;BME280;74901;55.024;73.254;2024-03-08T01:01:07;100948.88;;;-15.19;61.39
84677;BME280;74901;55.024;73.254;2024-03-08T01:03:36;100957.22;;;-15.29;61.22
84677;BME280;74901;55.024;73.254;2024-03-08T01:06:05;100952.56;;;-15.27;61.41
84677;BME280;74901;55.024;73.254;2024-03-08T01:08:34;100956.66;;;-15.31;61.32
84677;BME280;74901;55.024;73.254;2024-03-08T01:11:06;100969.59;;;-15.29;61.61
84677;BME280;74901;55.024;73.254;2024-03-08T01:13:35;100967.13;;;-15.24;61.22
84677;BME280;74901;55.024;73.254;2024-03-08T01:16:05;100976.44;;;-15.22;61.25
84677;BME280;74901;55.024;73.254;2024-03-08T01:18:33;100977.47;;;-15.23;61.43
84677;BME280;74901;55.024;73.254;2024-03-08T01:21:02;100982.94;;;-15.24;61.66
84677;BME280;74901;55.024;73.254;2024-03-08T01:23:31;100989.63;;;-15.22;61.01
84677;BME280;74901;55.024;73.254;2024-03-08T01:26:01;100982.34;;;-15.20;61.48
84677;BME280;74901;55.024;73.254;2024-03-08T01:28:32;100989.59;;;-15.15;60.85
84677;BME280;74901;55.024;73.254;2024-03-08T01:31:01;100978.44;;;-15.17;60.94
84677;BME280;74901;55.024;73.254;2024-03-08T01:33:32;100977.22;;;-15.14;61.06
84677;BME280;74901;55.024;73.254;2024-03-08T01:36:02;100985.31;;;-15.09;60.94
84677;BME280;74901;55.024;73.254;2024-03-08T01:38:31;100984.09;;;-15.07;61.41
84677;BME280;74901;55.024;73.254;2024-03-08T01:41:00;100987.75;;;-15.08;61.33
84677;BME280;74901;55.024;73.254;2024-03-08T01:43:31;100974.59;;;-15.14;60.78
84677;BME280;74901;55.024;73.254;2024-03-08T01:46:00;100989.56;;;-15.08;61.03
84677;BME280;74901;55.024;73.254;2024-03-08T01:48:30;100988.59;;;-15.14;61.30
84677;BME280;74901;55.024;73.254;2024-03-08T01:50:59;100981.09;;;-15.17;61.60
84677;BME280;74901;55.024;73.254;2024-03-08T01:53:29;100977.47;;;-15.23;61.87
84677;BME280;74901;55.024;73.254;2024-03-08T01:55:59;100981.53;;;-15.20;61.57
84677;BME280;74901;55.024;73.254;2024-03-08T01:58:31;100975.66;;;-15.22;61.53
84677;BME280;74901;55.024;73.254;2024-03-08T02:01:01;100988.84;;;-15.29;61.93
84677;BME280;74901;55.024;73.254;2024-03-08T02:03:31;100991.31;;;-15.34;62.04
84677;BME280;74901;55.024;73.254;2024-03-08T02:06:00;100985.03;;;-15.33;61.88
84677;BME280;74901;55.024;73.254;2024-03-08T02:08:28;100994.34;;;-15.30;62.12
84677;BME280;74901;55.024;73.254;2024-03-08T02:10:59;100991.69;;;-15.30;61.89
84677;BME280;74901;55.024;73.254;2024-03-08T02:13:29;100993.50;;;-15.24;62.14
84677;BME280;74901;55.024;73.254;2024-03-08T02:16:00;100986.59;;;-15.19;62.41
84677;BME280;74901;55.024;73.254;2024-03-08T02:18:29;100994.91;;;-15.22;61.74
84677;BME280;74901;55.024;73.254;2024-03-08T02:21:04;100994.97;;;-15.35;62.13
84677;BME280;74901;55.024;73.254;2024-03-08T02:23:33;100985.06;;;-15.39;62.56
84677;BME280;74901;55.024;73.254;2024-03-08T02:26:02;100997.81;;;-15.36;62.32
84677;BME280;74901;55.024;73.254;2024-03-08T02:28:31;101003.50;;;-15.33;61.95
84677;BME280;74901;55.024;73.254;2024-03-08T02:31:00;100988.34;;;-15.44;62.20
84677;BME280;74901;55.024;73.254;2024-03-08T02:33:29;101009.41;;;-15.37;62.19
84677;BME280;74901;55.024;73.254;2024-03-08T02:35:59;100991.94;;;-15.32;62.14
84677;BME280;74901;55.024;73.254;2024-03-08T02:38:30;100998.19;;;-15.26;61.87
84677;BME280;74901;55.024;73.254;2024-03-08T02:40:59;101000.53;;;-15.11;61.69
84677;BME280;74901;55.024;73.254;2024-03-08T02:43:27;101001.66;;;-14.94;61.68
84677;BME280;74901;55.024;73.254;2024-03-08T02:45:56;101007.84;;;-14.82;61.40
84677;BME280;74901;55.024;73.254;2024-03-08T02:48:26;101001.84;;;-14.64;61.98
84677;BME280;74901;55.024;73.254;2024-03-08T02:50:55;100998.94;;;-14.56;61.18
84677;BME280;74901;55.024;73.254;2024-03-08T02:53:23;100998.34;;;-14.58;61.49
84677;BME280;74901;55.024;73.254;2024-03-08T02:55:54;100989.41;;;-14.57;61.76
84677;BME280;74901;55.024;73.254;2024-03-08T02:58:23;100998.94;;;-14.56;62.08
84677;BME280;74901;55.024;73.254;2024-03-08T03:00:52;101008.34;;;-14.42;61.23
84677;BME280;74901;55.024;73.254;2024-03-08T03:03:21;100994.59;;;-14.26;61.14
84677;BME280;74901;55.024;73.254;2024-03-08T03:05:50;100996.44;;;-14.08;61.02
84677;BME280;74901;55.024;73.254;2024-03-08T03:08:22;101003.84;;;-13.99;61.32
84677;BME280;74901;55.024;73.254;2024-03-08T03:10:53;101002.84;;;-13.79;61.29
84677;BME280;74901;55.024;73.254;2024-03-08T03:13:23;101001.88;;;-13.67;60.70
84677;BME280;74901;55.024;73.254;2024-03-08T03:15:52;101005.63;;;-13.56;60.74
84677;BME280;74901;55.024;73.254;2024-03-08T03:18:21;101011.28;;;-13.52;60.25
84677;BME280;74901;55.024;73.254;2024-03-08T03:20:51;101009.75;;;-13.60;60.76
84677;BME280;74901;55.024;73.254;2024-03-08T03:23:19;101015.91;;;-13.66;61.46
84677;BME280;74901;55.024;73.254;2024-03-08T03:25:48;101019.78;;;-13.69;61.27
84677;BME280;74901;55.024;73.254;2024-03-08T03:28:20;101022.22;;;-13.67;61.56
84677;BME280;74901;55.024;73.254;2024-03-08T03:30:50;101002.22;;;-13.63;61.29
84677;BME280;74901;55.024;73.254;2024-03-08T03:33:19;101025.28;;;-13.34;61.02
84677;BME280;74901;55.024;73.254;2024-03-08T03:35:49;101029.34;;;-13.20;60.31
84677;BME280;74901;55.024;73.254;2024-03-08T03:38:18;101017.53;;;-13.17;60.33
84677;BME280;74901;55.024;73.254;2024-03-08T03:40:47;101018.81;;;-13.38;60.94
84677;BME280;74901;55.024;73.254;2024-03-08T03:43:20;101017.06;;;-13.62;61.30
84677;BME280;74901;55.024;73.254;2024-03-08T03:45:49;101026.34;;;-13.71;62.33
84677;BME280;74901;55.024;73.254;2024-03-08T03:48:18;101029.47;;;-13.44;61.76
84677;BME280;74901;55.024;73.254;2024-03-08T03:50:47;101037.53;;;-13.21;61.39
84677;BME280;74901;55.024;73.254;2024-03-08T03:53:18;101049.50;;;-13.07;61.14
84677;BME280;74901;55.024;73.254;2024-03-08T03:55:47;101041.50;;;-13.00;60.91
84677;BME280;74901;55.024;73.254;2024-03-08T03:58:16;101030.09;;;-13.01;60.86
84677;BME280;74901;55.024;73.254;2024-03-08T04:00:50;101037.88;;;-13.18;61.38
84677;BME280;74901;55.024;73.254;2024-03-08T04:03:19;101032.72;;;-13.13;61.33
84677;BME280;74901;55.024;73.254;2024-03-08T04:05:48;101033.19;;;-13.16;61.60
84677;BME280;74901;55.024;73.254;2024-03-08T04:08:17;101030.94;;;-13.30;61.80
84677;BME280;74901;55.024;73.254;2024-03-08T04:10:47;101032.41;;;-13.34;61.70
84677;BME280;74901;55.024;73.254;2024-03-08T04:13:15;101048.84;;;-13.32;61.68
84677;BME280;74901;55.024;73.254;2024-03-08T04:15:44;101037.84;;;-13.29;61.93
84677;BME280;74901;55.024;73.254;2024-03-08T04:18:16;101045.38;;;-13.33;62.06
84677;BME280;74901;55.024;73.254;2024-03-08T04:20:46;101046.13;;;-13.44;61.80
84677;BME280;74901;55.024;73.254;2024-03-08T04:23:15;101057.91;;;-13.58;62.33
84677;BME280;74901;55.024;73.254;2024-03-08T04:25:44;101038.34;;;-13.75;62.40
84677;BME280;74901;55.024;73.254;2024-03-08T04:28:13;101044.91;;;-13.60;62.52
84677;BME280;74901;55.024;73.254;2024-03-08T04:30:42;101047.91;;;-13.56;62.41
84677;BME280;74901;55.024;73.254;2024-03-08T04:33:15;101050.84;;;-13.46;62.03
84677;BME280;74901;55.024;73.254;2024-03-08T04:35:46;101041.88;;;-13.45;61.82
84677;BME280;74901;55.024;73.254;2024-03-08T04:38:14;101049.38;;;-13.42;61.96
84677;BME280;74901;55.024;73.254;2024-03-08T04:40:44;101049.31;;;-13.35;62.01
84677;BME280;74901;55.024;73.254;2024-03-08T04:43:12;101044.53;;;-13.27;61.33
84677;BME280;74901;55.024;73.254;2024-03-08T04:45:42;101060.34;;;-13.08;61.21
84677;BME280;74901;55.024;73.254;2024-03-08T04:48:10;101059.13;;;-12.94;61.17
84677;BME280;74901;55.024;73.254;2024-03-08T04:50:41;101052.94;;;-12.88;61.28
84677;BME280;74901;55.024;73.254;2024-03-08T04:53:11;101053.53;;;-12.86;60.77
84677;BME280;74901;55.024;73.254;2024-03-08T04:55:40;101055.53;;;-12.70;60.96
84677;BME280;74901;55.024;73.254;2024-03-08T04:58:09;101061.81;;;-12.53;60.99
84677;BME280;74901;55.024;73.254;2024-03-08T05:00:38;101062.38;;;-12.39;60.51
84677;BME280;74901;55.024;73.254;2024-03-08T05:03:06;101051.47;;;-12.19;60.27
84677;BME280;74901;55.024;73.254;2024-03-08T05:05:35;101066.03;;;-11.99;60.17
84677;BME280;74901;55.024;73.254;2024-03-08T05:08:06;101062.44;;;-11.81;60.11
84677;BME280;74901;55.024;73.254;2024-03-08T05:10:35;101063.53;;;-11.65;59.58
84677;BME280;74901;55.024;73.254;2024-03-08T05:13:04;101060.06;;;-11.42;59.45
84677;BME280;74901;55.024;73.254;2024-03-08T05:15:33;101046.84;;;-11.14;59.04
84677;BME280;74901;55.024;73.254;2024-03-08T05:18:01;101053.34;;;-10.93;59.14
84677;BME280;74901;55.024;73.254;2024-03-08T05:20:30;101023.59;;;-10.79;58.76
84677;BME280;74901;55.024;73.254;2024-03-08T05:22:59;101044.09;;;-10.46;58.57
84677;BME280;74901;55.024;73.254;2024-03-08T05:25:30;101054.28;;;-10.26;58.04
84677;BME280;74901;55.024;73.254;2024-03-08T05:27:59;101052.53;;;-9.99;57.91
84677;BME280;74901;55.024;73.254;2024-03-08T05:30:27;101051.97;;;-9.62;57.42
84677;BME280;74901;55.024;73.254;2024-03-08T05:32:56;101058.78;;;-9.33;57.11
84677;BME280;74901;55.024;73.254;2024-03-08T05:35:25;101058.91;;;-9.23;57.13
84677;BME280;74901;55.024;73.254;2024-03-08T05:37:54;101049.34;;;-9.19;57.02
84677;BME280;74901;55.024;73.254;2024-03-08T05:40:24;101049.97;;;-9.12;57.04
84677;BME280;74901;55.024;73.254;2024-03-08T05:42:55;101053.50;;;-9.28;57.53
84677;BME280;74901;55.024;73.254;2024-03-08T05:45:24;101052.44;;;-9.49;57.86
84677;BME280;74901;55.024;73.254;2024-03-08T05:47:53;101061.63;;;-9.78;58.75
84677;BME280;74901;55.024;73.254;2024-03-08T05:50:21;101047.78;;;-10.13;59.08
84677;BME280;74901;55.024;73.254;2024-03-08T05:52:50;101030.50;;;-10.33;59.41
84677;BME280;74901;55.024;73.254;2024-03-08T05:55:19;101049.66;;;-10.14;59.66
84677;BME280;74901;55.024;73.254;2024-03-08T05:57:49;101043.47;;;-10.19;59.73
84677;BME280;74901;55.024;73.254;2024-03-08T06:00:22;101040.16;;;-10.43;59.71
84677;BME280;74901;55.024;73.254;2024-03-08T06:02:51;101046.91;;;-10.52;60.06
84677;BME280;74901;55.024;73.254;2024-03-08T06:05:20;101043.59;;;-10.59;60.33
84677;BME280;74901;55.024;73.254;2024-03-08T06:07:51;101046.47;;;-10.61;60.44
84677;BME280;74901;55.024;73.254;2024-03-08T06:10:20;101044.56;;;-10.66;60.49
84677;BME280;74901;55.024;73.254;2024-03-08T06:12:49;101037.78;;;-10.73;60.07
84677;BME280;74901;55.024;73.254;2024-03-08T06:15:18;101049.78;;;-10.71;60.01
84677;BME280;74901;55.024;73.254;2024-03-08T06:17:49;101045.13;;;-10.63;59.93
84677;BME280;74901;55.024;73.254;2024-03-08T06:20:19;101049.19;;;-10.73;60.33
84677;BME280;74901;55.024;73.254;2024-03-08T06:22:53;101046.38;;;-10.83;60.20
84677;BME280;74901;55.024;73.254;2024-03-08T06:28:43;101038.88;;;-10.57;59.92
84677;BME280;74901;55.024;73.254;2024-03-08T06:31:13;101040.31;;;-10.50;60.02
84677;BME280;74901;55.024;73.254;2024-03-08T06:33:44;101049.25;;;-10.39;59.86
84677;BME280;74901;55.024;73.254;2024-03-08T06:36:13;101051.19;;;-10.35;59.67
84677;BME280;74901;55.024;73.254;2024-03-08T06:38:45;101042.34;;;-10.24;59.39
84677;BME280;74901;55.024;73.254;2024-03-08T06:41:14;101052.81;;;-10.17;59.26
84677;BME280;74901;55.024;73.254;2024-03-08T06:43:43;101048.03;;;-10.15;59.48
84677;BME280;74901;55.024;73.254;2024-03-08T06:46:15;101040.06;;;-10.15;59.47
84677;BME280;74901;55.024;73.254;2024-03-08T06:48:45;101044.56;;;-10.15;59.48
84677;BME280;74901;55.024;73.254;2024-03-08T06:51:16;101041.44;;;-10.12;59.37
84677;BME280;74901;55.024;73.254;2024-03-08T06:53:44;101047.94;;;-10.03;58.97
84677;BME280;74901;55.024;73.254;2024-03-08T06:56:13;101047.31;;;-9.94;59.14
84677;BME280;74901;55.024;73.254;2024-03-08T06:58:42;101056.97;;;-9.88;58.72
84677;BME280;74901;55.024;73.254;2024-03-08T07:01:11;101052.25;;;-9.81;59.06
84677;BME280;74901;55.024;73.254;2024-03-08T07:03:42;101061.50;;;-9.66;58.88
84677;BME280;74901;55.024;73.254;2024-03-08T07:06:12;101055.91;;;-9.48;58.46
84677;BME280;74901;55.024;73.254;2024-03-08T07:08:43;101053.19;;;-9.31;57.97
84677;BME280;74901;55.024;73.254;2024-03-08T07:11:13;101036.16;;;-9.09;57.57
84677;BME280;74901;55.024;73.254;2024-03-08T07:13:42;101023.47;;;-9.02;57.41
84677;BME280;74901;55.024;73.254;2024-03-08T07:16:11;101023.97;;;-9.05;57.22
84677;BME280;74901;55.024;73.254;2024-03-08T07:18:40;101027.84;;;-8.90;57.34
84677;BME280;74901;55.024;73.254;2024-03-08T07:21:10;101042.88;;;-8.79;57.87
84677;BME280;74901;55.024;73.254;2024-03-08T07:23:40;101036.25;;;-8.77;57.52
84677;BME280;74901;55.024;73.254;2024-03-08T07:26:29;101038.00;;;-8.61;57.49
84677;BME280;74901;55.024;73.254;2024-03-08T07:28:58;101042.28;;;-8.60;57.47
84677;BME280;74901;55.024;73.254;2024-03-08T07:31:27;101035.53;;;-8.67;57.84
84677;BME280;74901;55.024;73.254;2024-03-08T07:34:11;101027.81;;;-8.64;57.62
84677;BME280;74901;55.024;73.254;2024-03-08T07:36:40;101037.31;;;-8.78;57.88
84677;BME280;74901;55.024;73.254;2024-03-08T07:39:10;101030.41;;;-8.74;58.02
84677;BME280;74901;55.024;73.254;2024-03-08T07:41:40;101029.34;;;-8.73;57.96
84677;BME280;74901;55.024;73.254;2024-03-08T07:44:09;101029.75;;;-8.59;57.85
84677;BME280;74901;55.024;73.254;2024-03-08T07:46:37;101023.50;;;-8.70;58.05
84677;BME280;74901;55.024;73.254;2024-03-08T07:49:08;101038.19;;;-8.94;58.67
84677;BME280;74901;55.024;73.254;2024-03-08T07:51:38;101030.22;;;-9.37;59.49
84677;BME280;74901;55.024;73.254;2024-03-08T07:54:07;101043.66;;;-9.49;60.07
84677;BME280;74901;55.024;73.254;2024-03-08T07:56:38;101025.78;;;-9.32;60.12
84677;BME280;74901;55.024;73.254;2024-03-08T07:59:07;101047.72;;;-8.98;59.66
84677;BME280;74901;55.024;73.254;2024-03-08T08:01:36;101026.56;;;-9.10;59.75
84677;BME280;74901;55.024;73.254;2024-03-08T08:04:04;101023.56;;;-8.91;59.68
84677;BME280;74901;55.024;73.254;2024-03-08T08:06:35;101025.16;;;-8.64;59.19
84677;BME280;74901;55.024;73.254;2024-03-08T08:09:05;101017.78;;;-8.56;59.13
84677;BME280;74901;55.024;73.254;2024-03-08T08:11:38;101037.09;;;-8.71;59.46
84677;BME280;74901;55.024;73.254;2024-03-08T08:14:07;101039.19;;;-9.00;60.25
84677;BME280;74901;55.024;73.254;2024-03-08T08:16:36;101044.03;;;-9.19;60.66
84677;BME280;74901;55.024;73.254;2024-03-08T08:19:08;101043.66;;;-9.27;60.82
84677;BME280;74901;55.024;73.254;2024-03-08T08:21:38;101032.41;;;-9.34;61.25
84677;BME280;74901;55.024;73.254;2024-03-08T08:24:07;101035.13;;;-9.29;60.98
84677;BME280;74901;55.024;73.254;2024-03-08T08:26:39;101024.84;;;-9.21;60.59
84677;BME280;74901;55.024;73.254;2024-03-08T08:29:08;101014.41;;;-9.01;60.38
84677;BME280;74901;55.024;73.254;2024-03-08T08:31:37;101028.47;;;-8.83;59.79
84677;BME280;74901;55.024;73.254;2024-03-08T08:34:06;101044.22;;;-9.04;60.26
84677;BME280;74901;55.024;73.254;2024-03-08T08:36:34;101026.47;;;-9.20;60.53
84677;BME280;74901;55.024;73.254;2024-03-08T08:39:04;101054.66;;;-9.19;60.77
84677;BME280;74901;55.024;73.254;2024-03-08T08:41:40;101057.63;;;-9.37;61.35
84677;BME280;74901;55.024;73.254;2024-03-08T08:44:10;101036.16;;;-9.52;61.51
84677;BME280;74901;55.024;73.254;2024-03-08T08:46:39;101028.50;;;-9.49;61.79
84677;BME280;74901;55.024;73.254;2024-03-08T08:49:07;101044.28;;;-9.42;61.34
84677;BME280;74901;55.024;73.254;2024-03-08T08:51:37;101046.09;;;-9.26;61.06
84677;BME280;74901;55.024;73.254;2024-03-08T08:54:06;101034.56;;;-9.31;61.18
84677;BME280;74901;55.024;73.254;2024-03-08T08:56:36;101039.97;;;-9.26;61.23
84677;BME280;74901;55.024;73.254;2024-03-08T08:59:07;101033.75;;;-9.10;61.23
84677;BME280;74901;55.024;73.254;2024-03-08T09:01:36;101027.94;;;-9.07;61.15
84677;BME280;74901;55.024;73.254;2024-03-08T09:04:05;101024.03;;;-8.73;60.45
84677;BME280;74901;55.024;73.254;2024-03-08T09:06:34;101023.50;;;-8.43;59.58
84677;BME280;74901;55.024;73.254;2024-03-08T09:09:03;101025.34;;;-8.43;59.59
84677;BME280;74901;55.024;73.254;2024-03-08T09:11:32;101024.34;;;-8.37;59.47
84677;BME280;74901;55.024;73.254;2024-03-08T09:14:01;101021.19;;;-8.34;58.87
84677;BME280;74901;55.024;73.254;2024-03-08T09:16:33;101025.06;;;-8.47;59.20
84677;BME280;74901;55.024;73.254;2024-03-08T09:19:01;101019.09;;;-8.22;59.09
84677;BME280;74901;55.024;73.254;2024-03-08T09:21:30;101013.63;;;-8.05;58.32
84677;BME280;74901;55.024;73.254;2024-03-08T09:23:59;101023.38;;;-7.84;58.30
84677;BME280;74901;55.024;73.254;2024-03-08T09:26:28;101029.25;;;-7.82;58.25
84677;BME280;74901;55.024;73.254;2024-03-08T09:28:56;101034.94;;;-7.68;58.02
84677;BME280;74901;55.024;73.254;2024-03-08T09:31:25;101039.25;;;-7.57;58.05
84677;BME280;74901;55.024;73.254;2024-03-08T09:33:55;101027.31;;;-7.45;57.52
84677;BME280;74901;55.024;73.254;2024-03-08T09:36:24;101027.72;;;-7.68;58.12
84677;BME280;74901;55.024;73.254;2024-03-08T09:38:54;101032.47;;;-7.80;58.53
84677;BME280;74901;55.024;73.254;2024-03-08T09:41:22;101037.03;;;-7.76;58.25
84677;BME280;74901;55.024;73.254;2024-03-08T09:43:51;101033.41;;;-7.59;57.85
84677;BME280;74901;55.024;73.254;2024-03-08T09:46:22;101035.28;;;-7.55;57.36
84677;BME280;74901;55.024;73.254;2024-03-08T09:48:51;101021.41;;;-7.47;57.58
84677;BME280;74901;55.024;73.254;2024-03-08T09:51:27;101038.81;;;-7.44;57.20
84677;BME280;74901;55.024;73.254;2024-03-08T09:53:56;101030.56;;;-7.38;57.07
84677;BME280;74901;55.024;73.254;2024-03-08T09:56:27;101031.09;;;-7.36;57.12
84677;BME280;74901;55.024;73.254;2024-03-08T09:58:56;101029.19;;;-7.40;56.98
84677;BME280;74901;55.024;73.254;2024-03-08T10:01:47;101021.22;;;-7.35;56.82
84677;BME280;74901;55.024;73.254;2024-03-08T10:04:15;101034.63;;;-7.20;56.69
84677;BME280;74901;55.024;73.254;2024-03-08T10:06:47;101020.81;;;-7.02;56.49
84677;BME280;74901;55.024;73.254;2024-03-08T10:09:16;101023.28;;;-6.70;56.01
84677;BME280;74901;55.024;73.254;2024-03-08T10:11:45;101025.91;;;-2.55;51.09
84677;BME280;74901;55.024;73.254;2024-03-08T10:14:15;101029.50;;;2.81;40.73
84677;BME280;74901;55.024;73.254;2024-03-08T10:16:45;101023.94;;;5.72;33.92
84677;BME280;74901;55.024;73.254;2024-03-08T10:19:14;101014.84;;;7.37;30.83
84677;BME280;74901;55.024;73.254;2024-03-08T10:21:51;101022.59;;;8.50;28.54
84677;BME280;74901;55.024;73.254;2024-03-08T10:24:20;101005.59;;;9.77;27.18
84677;BME280;74901;55.024;73.254;2024-03-08T10:26:52;101022.66;;;9.93;27.41
84677;BME280;74901;55.024;73.254;2024-03-08T10:29:21;101005.44;;;9.96;27.36
84677;BME280;74901;55.024;73.254;2024-03-08T10:31:50;101012.25;;;10.09;26.00
84677;BME280;74901;55.024;73.254;2024-03-08T10:34:19;101030.31;;;9.77;25.91
84677;BME280;74901;55.024;73.254;2024-03-08T10:36:52;101041.34;;;9.80;27.01
84677;BME280;74901;55.024;73.254;2024-03-08T10:39:22;101036.25;;;10.12;25.98
84677;BME280;74901;55.024;73.254;2024-03-08T10:41:56;101022.09;;;10.50;25.71
84677;BME280;74901;55.024;73.254;2024-03-08T10:44:40;101022.53;;;10.15;24.62
84677;BME280;74901;55.024;73.254;2024-03-08T10:47:17;101025.16;;;10.05;24.68
84677;BME280;74901;55.024;73.254;2024-03-08T10:49:51;101027.56;;;9.47;25.74
84677;BME280;74901;55.024;73.254;2024-03-08T10:52:24;101026.63;;;9.36;25.04
84677;BME280;74901;55.024;73.254;2024-03-08T10:54:55;101025.53;;;9.14;25.60
84677;BME280;74901;55.024;73.254;2024-03-08T10:57:26;101027.94;;;8.43;25.62
84677;BME280;74901;55.024;73.254;2024-03-08T10:59:55;101029.28;;;7.92;25.82
84677;BME280;74901;55.024;73.254;2024-03-08T11:02:26;101036.63;;;8.07;25.19
84677;BME280;74901;55.024;73.254;2024-03-08T11:04:56;101022.44;;;8.01;25.20
84677;BME280;74901;55.024;73.254;2024-03-08T11:07:27;101025.31;;;7.89;25.39
84677;BME280;74901;55.024;73.254;2024-03-08T11:09:56;101032.38;;;7.52;25.82
84677;BME280;74901;55.024;73.254;2024-03-08T11:12:26;101024.28;;;7.05;26.47
84677;BME280;74901;55.024;73.254;2024-03-08T11:15:00;101039.63;;;6.94;26.05
84677;BME280;74901;55.024;73.254;2024-03-08T11:17:47;101035.13;;;6.38;26.26
84677;BME280;74901;55.024;73.254;2024-03-08T11:20:17;101034.00;;;6.39;26.75
84677;BME280;74901;55.024;73.254;2024-03-08T11:22:54;101037.50;;;6.24;27.08
84677;BME280;74901;55.024;73.254;2024-03-08T11:25:33;101036.47;;;6.29;26.38
84677;BME280;74901;55.024;73.254;2024-03-08T11:28:17;101037.28;;;5.61;27.40
84677;BME280;74901;55.024;73.254;2024-03-08T11:33:32;101034.09;;;4.95;27.88
84677;BME280;74901;55.024;73.254;2024-03-08T11:36:03;101036.00;;;4.95;27.56
84677;BME280;74901;55.024;73.254;2024-03-08T11:38:42;101042.34;;;4.05;29.00
84677;BME280;74901;55.024;73.254;2024-03-08T11:41:12;101038.75;;;3.80;29.23
84677;BME280;74901;55.024;73.254;2024-03-08T11:43:41;101044.25;;;3.72;29.56
84677;BME280;74901;55.024;73.254;2024-03-08T11:46:11;101040.00;;;3.41;29.31
84677;BME280;74901;55.024;73.254;2024-03-08T11:48:41;101016.34;;;2.92;29.43
84677;BME280;74901;55.024;73.254;2024-03-08T11:51:11;101037.44;;;2.57;30.49
84677;BME280;74901;55.024;73.254;2024-03-08T11:53:42;101041.91;;;1.80;30.51
84677;BME280;74901;55.024;73.254;2024-03-08T11:56:13;101043.31;;;1.26;31.65
84677;BME280;74901;55.024;73.254;2024-03-08T11:58:47;101039.41;;;0.93;32.10
84677;BME280;74901;55.024;73.254;2024-03-08T12:01:20;101026.19;;;0.43;32.53
84677;BME280;74901;55.024;73.254;2024-03-08T12:03:53;101034.31;;;-0.32;32.98
84677;BME280;74901;55.024;73.254;2024-03-08T12:06:25;101030.63;;;-0.72;33.61
84677;BME280;74901;55.024;73.254;2024-03-08T12:08:57;101030.06;;;-1.65;35.46
84677;BME280;74901;55.024;73.254;2024-03-08T12:11:26;101042.69;;;-2.25;36.67
84677;BME280;74901;55.024;73.254;2024-03-08T12:13:55;101039.81;;;-2.85;37.60
84677;BME280;74901;55.024;73.254;2024-03-08T12:16:24;101036.13;;;-3.37;37.57
84677;BME280;74901;55.024;73.254;2024-03-08T12:18:53;101043.47;;;-4.00;38.86
84677;BME280;74901;55.024;73.254;2024-03-08T12:21:22;101038.38;;;-4.69;40.51
84677;BME280;74901;55.024;73.254;2024-03-08T12:24:05;101040.88;;;-5.57;41.62
84677;BME280;74901;55.024;73.254;2024-03-08T12:26:37;101039.09;;;-6.23;42.41
84677;BME280;74901;55.024;73.254;2024-03-08T12:29:18;101052.69;;;-6.60;43.31
84677;BME280;74901;55.024;73.254;2024-03-08T12:31:51;101041.91;;;-7.10;43.97
84677;BME280;74901;55.024;73.254;2024-03-08T12:34:21;101038.06;;;-7.34;44.64
84677;BME280;74901;55.024;73.254;2024-03-08T12:36:52;101048.03;;;-7.67;44.79
84677;BME280;74901;55.024;73.254;2024-03-08T12:39:23;101047.84;;;-7.97;45.63
84677;BME280;74901;55.024;73.254;2024-03-08T12:41:53;101049.72;;;-8.30;46.01
84677;BME280;74901;55.024;73.254;2024-03-08T12:44:23;101039.50;;;-8.70;46.83
84677;BME280;74901;55.024;73.254;2024-03-08T12:46:52;101043.66;;;-9.06;47.31
84677;BME280;74901;55.024;73.254;2024-03-08T12:49:22;101046.94;;;-9.42;47.69
84677;BME280;74901;55.024;73.254;2024-03-08T12:51:51;101055.72;;;-9.80;48.74
84677;BME280;74901;55.024;73.254;2024-03-08T12:54:23;101048.22;;;-10.21;49.29
84677;BME280;74901;55.024;73.254;2024-03-08T12:56:52;101053.84;;;-10.51;49.85